createdAt,value
2019-06-27T00:00:28.460Z,24.39
2019-06-27T00:01:28.441Z,24.34
2019-06-27T00:02:28.422Z,24.32
2019-06-27T00:03:28.410Z,24.39
2019-06-27T00:04:28.396Z,24.38
2019-06-27T00:05:28.379Z,24.35
2019-06-27T00:06:28.366Z,24.34
2019-06-27T00:07:28.351Z,24.26
2019-06-27T00:08:28.337Z,24.26
2019-06-27T00:09:28.322Z,24.34
2019-06-27T00:10:28.308Z,24.35
2019-06-27T00:11:28.447Z,24.26
2019-06-27T00:12:28.280Z,24.19
2019-06-27T00:13:28.265Z,24.19
2019-06-27T00:14:28.252Z,24.13
2019-06-27T00:15:28.240Z,24.13
2019-06-27T00:16:28.222Z,24.20
2019-06-27T00:17:28.208Z,24.23
2019-06-27T00:18:28.193Z,24.29
2019-06-27T00:19:28.184Z,24.37
2019-06-27T00:20:28.174Z,24.32
2019-06-27T00:21:28.172Z,24.35
2019-06-27T00:22:28.136Z,24.38
2019-06-27T00:23:28.121Z,24.37
2019-06-27T00:24:28.109Z,24.27
2019-06-27T00:25:28.093Z,24.31
2019-06-27T00:26:28.078Z,24.31
2019-06-27T00:27:28.063Z,24.31
2019-06-27T00:28:28.048Z,24.20
2019-06-27T00:29:28.036Z,24.22
2019-06-27T00:30:28.021Z,24.16
2019-06-27T00:31:28.012Z,24.13
2019-06-27T00:32:27.994Z,24.10
2019-06-27T00:33:27.978Z,24.12
2019-06-27T00:34:27.963Z,24.13
2019-06-27T00:35:27.949Z,24.16
2019-06-27T00:36:27.935Z,24.08
2019-06-27T00:37:27.918Z,24.12
2019-06-27T00:38:30.157Z,24.16
2019-06-27T00:39:27.892Z,24.10
2019-06-27T00:40:27.882Z,24.13
2019-06-27T00:41:27.861Z,24.12
2019-06-27T00:42:27.847Z,24.07
2019-06-27T00:43:27.833Z,24.12
2019-06-27T00:44:27.819Z,24.07
2019-06-27T00:45:27.804Z,24.13
2019-06-27T00:46:27.789Z,24.12
2019-06-27T00:47:27.783Z,24.12
2019-06-27T00:48:27.762Z,24.12
2019-06-27T00:49:27.746Z,24.04
2019-06-27T00:50:27.734Z,23.98
2019-06-27T00:51:27.720Z,24.00
2019-06-27T00:52:27.704Z,23.97
2019-06-27T00:53:27.688Z,24.01
2019-06-27T00:54:27.674Z,24.13
2019-06-27T00:55:27.659Z,23.92
2019-06-27T00:56:27.645Z,24.05
2019-06-27T00:57:27.630Z,24.13
2019-06-27T00:58:27.618Z,24.12
2019-06-27T00:59:27.602Z,24.14
2019-06-27T01:00:27.587Z,24.10
2019-06-27T01:01:27.571Z,24.12
2019-06-27T01:02:27.558Z,24.12
2019-06-27T01:03:27.544Z,24.19
2019-06-27T01:04:27.530Z,24.17
2019-06-27T01:05:28.265Z,24.10
2019-06-27T01:06:27.500Z,24.16
2019-06-27T01:07:27.486Z,24.12
2019-06-27T01:08:27.473Z,24.16
2019-06-27T01:09:27.458Z,24.10
2019-06-27T01:10:27.442Z,24.07
2019-06-27T01:11:27.428Z,23.94
2019-06-27T01:12:27.445Z,24.01
2019-06-27T01:13:27.399Z,24.02
2019-06-27T01:14:27.385Z,23.94
2019-06-27T01:15:27.370Z,23.89
2019-06-27T01:16:27.355Z,23.94
2019-06-27T01:17:27.343Z,23.85
2019-06-27T01:18:27.326Z,23.89
2019-06-27T01:19:27.310Z,23.85
2019-06-27T01:20:27.296Z,23.83
2019-06-27T01:21:27.280Z,23.85
2019-06-27T01:22:27.267Z,23.77
2019-06-27T01:23:27.252Z,23.75
2019-06-27T01:24:27.238Z,23.77
2019-06-27T01:25:27.221Z,23.76
2019-06-27T01:26:27.208Z,23.75
2019-06-27T01:27:30.315Z,23.75
2019-06-27T01:28:27.179Z,23.79
2019-06-27T01:29:27.163Z,23.67
2019-06-27T01:30:27.150Z,23.76
2019-06-27T01:31:27.136Z,23.65
2019-06-27T01:32:27.120Z,23.68
2019-06-27T01:33:27.105Z,23.75
2019-06-27T01:34:27.089Z,23.70
2019-06-27T01:35:27.076Z,23.76
2019-06-27T01:36:27.061Z,23.76
2019-06-27T01:37:27.046Z,23.72
2019-06-27T01:38:27.031Z,23.75
2019-06-27T01:39:27.016Z,23.77
2019-06-27T01:40:27.002Z,23.76
2019-06-27T01:41:26.985Z,23.71
2019-06-27T01:42:26.970Z,23.75
2019-06-27T01:43:26.959Z,23.67
2019-06-27T01:44:26.942Z,23.65
2019-06-27T01:45:26.925Z,23.68
2019-06-27T01:46:26.911Z,23.58
2019-06-27T01:47:26.897Z,23.57
2019-06-27T01:48:26.881Z,23.52
2019-06-27T01:49:26.873Z,23.52
2019-06-27T01:50:26.852Z,23.52
2019-06-27T01:51:26.838Z,23.47
2019-06-27T01:52:29.077Z,23.50
2019-06-27T01:53:26.806Z,23.55
2019-06-27T01:54:26.791Z,23.38
2019-06-27T01:55:26.777Z,23.38
2019-06-27T01:56:26.766Z,23.34
2019-06-27T01:57:26.745Z,23.40
2019-06-27T01:58:26.731Z,23.42
2019-06-27T01:59:26.719Z,23.39
2019-06-27T02:00:26.702Z,23.45
2019-06-27T02:01:26.686Z,23.46
2019-06-27T02:02:26.670Z,23.50
2019-06-27T02:03:26.660Z,23.50
2019-06-27T02:04:26.640Z,23.49
2019-06-27T02:05:26.625Z,23.58
2019-06-27T02:06:26.610Z,23.61
2019-06-27T02:07:26.601Z,23.57
2019-06-27T02:08:26.578Z,23.60
2019-06-27T02:09:26.563Z,23.60
2019-06-27T02:10:26.550Z,23.65
2019-06-27T02:11:26.534Z,23.58
2019-06-27T02:12:26.534Z,23.57
2019-06-27T02:13:26.505Z,23.55
2019-06-27T02:14:26.493Z,23.52
2019-06-27T02:15:26.475Z,23.46
2019-06-27T02:16:26.457Z,23.39
2019-06-27T02:17:26.440Z,23.29
2019-06-27T02:18:26.461Z,23.26
2019-06-27T02:19:26.413Z,23.31
2019-06-27T02:20:26.395Z,23.23
2019-06-27T02:21:26.378Z,23.26
2019-06-27T02:22:26.364Z,23.17
2019-06-27T02:23:26.349Z,23.17
2019-06-27T02:24:26.337Z,23.11
2019-06-27T02:25:27.069Z,23.05
2019-06-27T02:26:26.303Z,23.04
2019-06-27T02:27:26.290Z,23.02
2019-06-27T02:28:26.272Z,23.01
2019-06-27T02:29:26.257Z,23.02
2019-06-27T02:30:26.242Z,22.97
2019-06-27T02:31:26.226Z,23.12
2019-06-27T02:32:26.213Z,22.97
2019-06-27T02:33:26.196Z,23.05
2019-06-27T02:34:26.179Z,23.09
2019-06-27T02:35:26.167Z,23.01
2019-06-27T02:36:26.149Z,22.89
2019-06-27T02:37:26.134Z,22.89
2019-06-27T02:38:26.119Z,22.78
2019-06-27T02:39:26.101Z,22.72
2019-06-27T02:40:26.087Z,22.75
2019-06-27T02:41:26.072Z,22.72
2019-06-27T02:42:26.055Z,22.65
2019-06-27T02:43:26.049Z,22.65
2019-06-27T02:44:26.026Z,22.60
2019-06-27T02:45:26.009Z,22.67
2019-06-27T02:46:25.998Z,22.67
2019-06-27T02:47:25.982Z,22.65
2019-06-27T02:48:25.962Z,22.71
2019-06-27T02:49:25.947Z,22.67
2019-06-27T02:50:25.929Z,22.67
2019-06-27T02:51:25.925Z,22.68
2019-06-27T02:52:25.898Z,22.67
2019-06-27T02:53:25.884Z,22.68
2019-06-27T02:54:25.870Z,22.64
2019-06-27T02:55:25.853Z,22.67
2019-06-27T02:56:25.840Z,22.60
2019-06-27T02:57:25.829Z,22.59
2019-06-27T02:58:31.356Z,22.60
2019-06-27T02:59:25.790Z,22.64
2019-06-27T03:00:25.775Z,22.59
2019-06-27T03:01:25.756Z,22.59
2019-06-27T03:02:25.742Z,22.59
2019-06-27T03:03:25.726Z,22.57
2019-06-27T03:04:25.711Z,22.46
2019-06-27T03:05:25.694Z,22.59
2019-06-27T03:06:25.681Z,22.46
2019-06-27T03:07:25.663Z,22.54
2019-06-27T03:08:25.650Z,22.44
2019-06-27T03:09:25.642Z,22.47
2019-06-27T03:10:25.616Z,22.57
2019-06-27T03:11:25.600Z,22.53
2019-06-27T03:12:25.588Z,22.47
2019-06-27T03:13:25.568Z,22.46
2019-06-27T03:14:25.588Z,22.43
2019-06-27T03:15:25.539Z,22.54
2019-06-27T03:16:25.522Z,22.59
2019-06-27T03:17:25.507Z,22.56
2019-06-27T03:18:26.243Z,22.49
2019-06-27T03:19:25.475Z,22.59
2019-06-27T03:20:25.458Z,22.56
2019-06-27T03:21:25.442Z,22.54
2019-06-27T03:22:25.428Z,22.47
2019-06-27T03:23:25.413Z,22.41
2019-06-27T03:24:25.449Z,22.43
2019-06-27T03:25:25.379Z,22.54
2019-06-27T03:26:25.367Z,22.53
2019-06-27T03:27:25.350Z,22.54
2019-06-27T03:28:25.335Z,22.59
2019-06-27T03:29:25.330Z,22.50
2019-06-27T03:30:25.306Z,22.53
2019-06-27T03:31:25.287Z,22.54
2019-06-27T03:32:25.272Z,22.56
2019-06-27T03:33:25.259Z,22.47
2019-06-27T03:34:25.323Z,22.49
2019-06-27T03:35:25.229Z,22.56
2019-06-27T03:36:25.209Z,22.52
2019-06-27T03:37:25.190Z,22.52
2019-06-27T03:38:25.179Z,22.54
2019-06-27T03:39:25.161Z,22.60
2019-06-27T03:40:25.147Z,22.50
2019-06-27T03:41:25.129Z,22.47
2019-06-27T03:42:25.114Z,22.44
2019-06-27T03:43:25.101Z,22.56
2019-06-27T03:44:25.099Z,22.59
2019-06-27T03:45:25.064Z,22.47
2019-06-27T03:46:25.061Z,22.57
2019-06-27T03:47:25.054Z,22.56
2019-06-27T03:48:25.019Z,22.54
2019-06-27T03:49:25.004Z,22.50
2019-06-27T03:50:24.986Z,22.56
2019-06-27T03:51:24.973Z,22.56
2019-06-27T03:52:24.959Z,22.56
2019-06-27T03:53:24.939Z,22.62
2019-06-27T03:54:24.925Z,22.69
2019-06-27T03:55:25.669Z,22.83
2019-06-27T03:56:24.897Z,22.82
2019-06-27T03:57:24.877Z,22.82
2019-06-27T03:58:24.861Z,22.72
2019-06-27T03:59:24.850Z,22.74
2019-06-27T04:00:24.831Z,22.92
2019-06-27T04:01:24.814Z,22.90
2019-06-27T04:02:24.802Z,22.99
2019-06-27T04:03:24.793Z,22.99
2019-06-27T04:04:24.778Z,23.01
2019-06-27T04:05:24.752Z,22.87
2019-06-27T04:06:24.736Z,23.02
2019-06-27T04:07:24.720Z,22.93
2019-06-27T04:08:24.707Z,23.04
2019-06-27T04:09:24.687Z,23.02
2019-06-27T04:10:24.692Z,23.07
2019-06-27T04:11:24.660Z,23.02
2019-06-27T04:12:24.645Z,22.99
2019-06-27T04:13:24.624Z,23.11
2019-06-27T04:14:24.612Z,23.04
2019-06-27T04:15:24.591Z,22.97
2019-06-27T04:16:24.578Z,22.97
2019-06-27T04:17:24.560Z,23.14
2019-06-27T04:18:24.549Z,23.01
2019-06-27T04:19:24.529Z,23.05
2019-06-27T04:20:24.514Z,23.08
2019-06-27T04:21:24.540Z,23.01
2019-06-27T04:22:28.986Z,23.09
2019-06-27T04:23:24.471Z,23.15
2019-06-27T04:24:24.451Z,23.19
2019-06-27T04:25:24.435Z,23.08
2019-06-27T04:26:24.419Z,23.12
2019-06-27T04:27:24.409Z,23.24
2019-06-27T04:28:25.152Z,23.19
2019-06-27T04:29:33.407Z,23.20
2019-06-27T04:30:24.380Z,23.23
2019-06-27T04:31:24.342Z,23.31
2019-06-27T04:32:24.328Z,23.23
2019-06-27T04:33:24.312Z,23.27
2019-06-27T04:34:24.309Z,23.27
2019-06-27T04:35:24.278Z,23.31
2019-06-27T04:36:24.262Z,23.32
2019-06-27T04:37:24.245Z,23.43
2019-06-27T04:38:24.231Z,23.45
2019-06-27T04:39:24.215Z,23.49
2019-06-27T04:40:24.199Z,23.49
2019-06-27T04:41:24.198Z,23.60
2019-06-27T04:42:24.169Z,23.62
2019-06-27T04:43:24.152Z,23.61
2019-06-27T04:44:24.890Z,23.67
2019-06-27T04:45:24.120Z,23.62
2019-06-27T04:46:24.106Z,23.67
2019-06-27T04:47:24.092Z,23.64
2019-06-27T04:48:24.075Z,23.64
2019-06-27T04:49:24.074Z,23.71
2019-06-27T04:50:24.043Z,23.79
2019-06-27T04:51:24.028Z,23.76
2019-06-27T04:52:24.014Z,23.72
2019-06-27T04:53:23.997Z,23.62
2019-06-27T04:54:23.982Z,23.71
2019-06-27T04:55:24.026Z,23.71
2019-06-27T04:56:23.954Z,23.75
2019-06-27T04:57:23.936Z,23.75
2019-06-27T04:58:23.924Z,23.76
2019-06-27T04:59:23.907Z,23.79
2019-06-27T05:00:23.889Z,23.83
2019-06-27T05:01:23.879Z,23.90
2019-06-27T05:02:23.862Z,23.94
2019-06-27T05:03:23.844Z,23.97
2019-06-27T05:04:23.829Z,23.97
2019-06-27T05:05:23.814Z,24.04
2019-06-27T05:06:23.801Z,24.13
2019-06-27T05:07:23.787Z,24.07
2019-06-27T05:08:23.769Z,24.10
2019-06-27T05:09:23.753Z,24.14
2019-06-27T05:10:23.742Z,24.14
2019-06-27T05:11:23.722Z,24.08
2019-06-27T05:12:23.717Z,24.17
2019-06-27T05:13:23.696Z,24.13
2019-06-27T05:14:23.677Z,24.20
2019-06-27T05:15:23.661Z,24.29
2019-06-27T05:16:23.648Z,24.35
2019-06-27T05:17:23.631Z,24.39
2019-06-27T05:18:23.616Z,24.41
2019-06-27T05:19:23.601Z,24.45
2019-06-27T05:20:23.586Z,24.54
2019-06-27T05:21:24.322Z,24.54
2019-06-27T05:22:23.555Z,24.52
2019-06-27T05:23:23.541Z,24.67
2019-06-27T05:24:23.532Z,24.60
2019-06-27T05:25:23.511Z,24.69
2019-06-27T05:26:23.512Z,24.71
2019-06-27T05:27:23.481Z,24.60
2019-06-27T05:28:23.468Z,24.64
2019-06-27T05:29:23.451Z,24.68
2019-06-27T05:30:23.443Z,24.75
2019-06-27T05:31:23.421Z,24.92
2019-06-27T05:32:23.407Z,24.91
2019-06-27T05:33:23.392Z,24.73
2019-06-27T05:34:23.377Z,24.69
2019-06-27T05:35:23.382Z,24.68
2019-06-27T05:36:23.346Z,24.61
2019-06-27T05:37:23.330Z,24.64
2019-06-27T05:38:23.316Z,24.80
2019-06-27T05:39:23.302Z,24.79
2019-06-27T05:40:23.288Z,24.76
2019-06-27T05:41:23.272Z,24.79
2019-06-27T05:42:23.257Z,24.79
2019-06-27T05:43:23.242Z,24.83
2019-06-27T05:44:23.229Z,24.92
2019-06-27T05:45:23.214Z,24.91
2019-06-27T05:46:23.200Z,24.87
2019-06-27T05:47:23.184Z,24.90
2019-06-27T05:48:23.171Z,24.88
2019-06-27T05:49:23.154Z,24.63
2019-06-27T05:50:23.140Z,24.67
2019-06-27T05:51:23.125Z,24.77
2019-06-27T05:52:23.110Z,24.83
2019-06-27T05:53:23.096Z,24.90
2019-06-27T05:54:23.085Z,24.94
2019-06-27T05:55:23.068Z,25.05
2019-06-27T05:56:23.054Z,25.07
2019-06-27T05:57:23.037Z,25.12
2019-06-27T05:58:23.037Z,25.10
2019-06-27T05:59:23.009Z,25.13
2019-06-27T06:00:29.066Z,25.22
2019-06-27T06:01:22.980Z,25.25
2019-06-27T06:02:22.965Z,25.32
2019-06-27T06:03:22.970Z,25.34
2019-06-27T06:04:24.101Z,25.34
2019-06-27T06:05:22.927Z,25.44
2019-06-27T06:06:22.909Z,25.43
2019-06-27T06:07:25.901Z,25.52
2019-06-27T06:08:22.879Z,25.49
2019-06-27T06:09:22.865Z,25.56
2019-06-27T06:10:22.849Z,25.67
2019-06-27T06:11:22.836Z,25.71
2019-06-27T06:12:22.820Z,25.83
2019-06-27T06:13:22.805Z,25.79
2019-06-27T06:14:22.791Z,25.82
2019-06-27T06:15:22.777Z,25.80
2019-06-27T06:16:22.763Z,25.75
2019-06-27T06:17:22.763Z,25.79
2019-06-27T06:18:22.740Z,25.75
2019-06-27T06:19:22.719Z,25.83
2019-06-27T06:20:22.705Z,25.80
2019-06-27T06:21:22.690Z,25.89
2019-06-27T06:22:22.677Z,26.08
2019-06-27T06:23:22.663Z,26.11
2019-06-27T06:24:23.399Z,26.12
2019-06-27T06:25:22.639Z,26.25
2019-06-27T06:26:22.622Z,26.32
2019-06-27T06:27:22.605Z,26.35
2019-06-27T06:28:22.591Z,26.42
2019-06-27T06:29:22.581Z,26.59
2019-06-27T06:30:22.563Z,26.58
2019-06-27T06:31:22.550Z,26.64
2019-06-27T06:32:22.540Z,26.59
2019-06-27T06:33:22.520Z,26.49
2019-06-27T06:34:22.507Z,26.31
2019-06-27T06:35:22.492Z,26.28
2019-06-27T06:36:22.478Z,26.32
2019-06-27T06:37:22.465Z,26.28
2019-06-27T06:38:22.452Z,26.31
2019-06-27T06:39:22.437Z,26.29
2019-06-27T06:40:22.423Z,26.27
2019-06-27T06:41:22.409Z,26.18
2019-06-27T06:42:22.395Z,26.12
2019-06-27T06:43:22.404Z,26.15
2019-06-27T06:44:22.367Z,26.27
2019-06-27T06:45:22.355Z,26.32
2019-06-27T06:46:22.343Z,26.43
2019-06-27T06:47:22.326Z,26.67
2019-06-27T06:48:22.312Z,26.67
2019-06-27T06:49:22.298Z,26.79
2019-06-27T06:50:23.553Z,26.84
2019-06-27T06:51:22.273Z,26.91
2019-06-27T06:52:22.256Z,27.02
2019-06-27T06:53:22.241Z,27.24
2019-06-27T06:54:22.228Z,27.21
2019-06-27T06:55:22.215Z,27.20
2019-06-27T06:56:22.210Z,27.17
2019-06-27T06:57:22.187Z,27.20
2019-06-27T06:58:22.176Z,27.13
2019-06-27T06:59:22.160Z,27.13
2019-06-27T07:00:22.151Z,27.26
2019-06-27T07:01:22.134Z,27.32
2019-06-27T07:02:22.123Z,27.41
2019-06-27T07:03:22.106Z,27.41
2019-06-27T07:04:22.096Z,27.48
2019-06-27T07:05:22.088Z,27.51
2019-06-27T07:06:22.065Z,27.53
2019-06-27T07:07:22.057Z,27.33
2019-06-27T07:08:22.041Z,27.33
2019-06-27T07:09:22.027Z,27.38
2019-06-27T07:10:22.017Z,27.41
2019-06-27T07:11:22.001Z,27.43
2019-06-27T07:12:21.999Z,27.43
2019-06-27T07:13:21.970Z,27.42
2019-06-27T07:14:21.957Z,27.67
2019-06-27T07:15:21.952Z,27.50
2019-06-27T07:16:21.934Z,27.53
2019-06-27T07:17:21.930Z,27.54
2019-06-27T07:18:21.909Z,27.51
2019-06-27T07:19:21.892Z,27.51
2019-06-27T07:20:21.880Z,27.64
2019-06-27T07:21:21.878Z,27.61
2019-06-27T07:22:21.851Z,27.71
2019-06-27T07:23:21.837Z,27.64
2019-06-27T07:24:21.825Z,27.71
2019-06-27T07:25:21.811Z,27.84
2019-06-27T07:26:22.473Z,27.85
2019-06-27T07:27:21.795Z,27.92
2019-06-27T07:28:21.793Z,27.88
2019-06-27T07:29:21.763Z,27.96
2019-06-27T07:30:21.745Z,28.07
2019-06-27T07:31:21.732Z,28.06
2019-06-27T07:32:21.719Z,28.13
2019-06-27T07:33:23.958Z,28.23
2019-06-27T07:34:21.701Z,28.22
2019-06-27T07:35:21.679Z,28.46
2019-06-27T07:36:21.666Z,28.53
2019-06-27T07:37:21.653Z,28.51
2019-06-27T07:38:21.640Z,28.62
2019-06-27T07:39:22.380Z,28.73
2019-06-27T07:40:21.616Z,28.58
2019-06-27T07:41:21.601Z,28.50
2019-06-27T07:42:21.587Z,28.50
2019-06-27T07:43:21.575Z,28.59
2019-06-27T07:44:21.563Z,28.44
2019-06-27T07:45:21.549Z,28.51
2019-06-27T07:46:25.585Z,28.53
2019-06-27T07:47:21.523Z,28.41
2019-06-27T07:48:21.518Z,28.43
2019-06-27T07:49:21.498Z,28.51
2019-06-27T07:50:21.488Z,28.50
2019-06-27T07:51:21.474Z,28.77
2019-06-27T07:52:21.561Z,28.84
2019-06-27T07:53:21.446Z,28.91
2019-06-27T07:54:21.434Z,28.88
2019-06-27T07:55:21.424Z,28.84
2019-06-27T07:56:21.409Z,28.75
2019-06-27T07:57:21.399Z,28.63
2019-06-27T07:58:21.383Z,28.63
2019-06-27T07:59:21.369Z,28.70
2019-06-27T08:00:21.359Z,28.72
2019-06-27T08:01:34.390Z,28.87
2019-06-27T08:02:21.333Z,28.82
2019-06-27T08:03:21.323Z,28.84
2019-06-27T08:04:21.335Z,28.75
2019-06-27T08:05:21.302Z,28.93
2019-06-27T08:06:21.280Z,29.00
2019-06-27T08:07:21.473Z,28.96
2019-06-27T08:08:21.263Z,29.00
2019-06-27T08:09:21.252Z,29.06
2019-06-27T08:10:22.736Z,29.07
2019-06-27T08:11:21.268Z,29.19
2019-06-27T08:12:21.206Z,29.28
2019-06-27T08:13:21.197Z,29.20
2019-06-27T08:14:21.190Z,29.22
2019-06-27T08:15:21.189Z,29.35
2019-06-27T08:16:21.156Z,29.37
2019-06-27T08:17:21.143Z,29.34
2019-06-27T08:18:21.133Z,29.38
2019-06-27T08:19:21.117Z,29.49
2019-06-27T08:20:21.106Z,29.59
2019-06-27T08:21:21.093Z,29.56
2019-06-27T08:22:21.079Z,29.70
2019-06-27T08:23:21.075Z,29.59
2019-06-27T08:24:21.059Z,29.57
2019-06-27T08:25:21.047Z,29.41
2019-06-27T08:26:21.030Z,29.44
2019-06-27T08:27:21.019Z,29.34
2019-06-27T08:28:21.009Z,29.49
2019-06-27T08:29:20.992Z,29.65
2019-06-27T08:30:20.981Z,29.71
2019-06-27T08:31:20.976Z,29.72
2019-06-27T08:32:20.957Z,29.74
2019-06-27T08:33:20.944Z,29.70
2019-06-27T08:34:20.933Z,29.57
2019-06-27T08:35:20.920Z,29.57
2019-06-27T08:36:20.909Z,29.74
2019-06-27T08:37:20.896Z,29.57
2019-06-27T08:38:20.885Z,29.68
2019-06-27T08:39:20.870Z,29.70
2019-06-27T08:40:20.859Z,29.70
2019-06-27T08:41:20.847Z,29.70
2019-06-27T08:42:20.835Z,29.82
2019-06-27T08:43:20.873Z,29.75
2019-06-27T08:44:20.810Z,29.71
2019-06-27T08:45:20.797Z,29.78
2019-06-27T08:46:20.785Z,29.59
2019-06-27T08:47:20.787Z,29.72
2019-06-27T08:48:20.761Z,29.72
2019-06-27T08:49:20.748Z,29.93
2019-06-27T08:50:20.737Z,29.90
2019-06-27T08:51:20.726Z,29.79
2019-06-27T08:52:20.713Z,29.92
2019-06-27T08:53:20.701Z,30.15
2019-06-27T08:54:20.739Z,29.79
2019-06-27T08:55:20.677Z,29.89
2019-06-27T08:56:20.665Z,29.81
2019-06-27T08:57:20.651Z,29.89
2019-06-27T08:58:20.639Z,29.97
2019-06-27T08:59:20.627Z,29.93
2019-06-27T09:00:20.616Z,29.72
2019-06-27T09:01:20.605Z,29.59
2019-06-27T09:02:20.594Z,29.63
2019-06-27T09:03:20.581Z,29.89
2019-06-27T09:04:20.567Z,30.12
2019-06-27T09:05:20.555Z,30.30
2019-06-27T09:06:21.291Z,30.36
2019-06-27T09:07:20.536Z,30.49
2019-06-27T09:08:20.520Z,30.67
2019-06-27T09:09:20.507Z,30.57
2019-06-27T09:10:20.495Z,30.64
2019-06-27T09:11:20.485Z,30.30
2019-06-27T09:12:20.473Z,30.46
2019-06-27T09:13:20.460Z,30.61
2019-06-27T09:14:20.449Z,30.69
2019-06-27T09:15:21.940Z,30.64
2019-06-27T09:16:20.480Z,30.89
2019-06-27T09:17:20.413Z,30.90
2019-06-27T09:18:20.402Z,30.84
2019-06-27T09:19:20.391Z,30.74
2019-06-27T09:20:20.380Z,30.89
2019-06-27T09:21:20.366Z,30.99
2019-06-27T09:22:20.418Z,30.78
2019-06-27T09:23:20.355Z,30.81
2019-06-27T09:24:20.336Z,30.62
2019-06-27T09:25:20.325Z,30.76
2019-06-27T09:26:20.312Z,30.83
2019-06-27T09:27:20.453Z,30.94
2019-06-27T09:28:20.286Z,30.86
2019-06-27T09:29:20.274Z,30.99
2019-06-27T09:30:20.273Z,31.04
2019-06-27T09:31:20.254Z,31.09
2019-06-27T09:32:25.385Z,30.98
2019-06-27T09:33:20.230Z,31.08
2019-06-27T09:34:21.481Z,31.04
2019-06-27T09:35:20.213Z,30.94
2019-06-27T09:36:20.195Z,31.01
2019-06-27T09:37:20.183Z,30.89
2019-06-27T09:38:20.174Z,30.90
2019-06-27T09:39:20.163Z,30.96
2019-06-27T09:40:20.149Z,31.09
2019-06-27T09:41:20.138Z,31.15
2019-06-27T09:42:20.126Z,31.28
2019-06-27T09:43:20.118Z,31.30
2019-06-27T09:44:20.104Z,31.13
2019-06-27T09:45:20.096Z,30.84
2019-06-27T09:46:20.082Z,30.78
2019-06-27T09:47:20.073Z,30.87
2019-06-27T09:48:20.061Z,31.01
2019-06-27T09:49:20.050Z,31.12
2019-06-27T09:50:21.593Z,31.09
2019-06-27T09:51:20.026Z,31.15
2019-06-27T09:52:20.015Z,31.27
2019-06-27T09:53:20.755Z,31.26
2019-06-27T09:54:19.995Z,31.49
2019-06-27T09:55:19.982Z,31.70
2019-06-27T09:56:19.973Z,31.80
2019-06-27T09:57:19.958Z,31.92
2019-06-27T09:58:19.947Z,31.92
2019-06-27T09:59:19.970Z,31.85
2019-06-27T10:00:19.935Z,31.84
2019-06-27T10:01:19.973Z,31.99
2019-06-27T10:02:19.905Z,31.79
2019-06-27T10:03:19.893Z,31.88
2019-06-27T10:04:19.887Z,31.82
2019-06-27T10:05:19.872Z,31.65
2019-06-27T10:06:19.859Z,31.62
2019-06-27T10:07:19.848Z,31.70
2019-06-27T10:08:19.838Z,31.65
2019-06-27T10:09:19.826Z,31.87
2019-06-27T10:10:19.816Z,31.96
2019-06-27T10:11:19.806Z,32.05
2019-06-27T10:12:19.795Z,32.02
2019-06-27T10:13:19.784Z,32.03
2019-06-27T10:14:19.773Z,31.76
2019-06-27T10:15:19.766Z,31.65
2019-06-27T10:16:19.815Z,31.60
2019-06-27T10:17:19.741Z,31.73
2019-06-27T10:18:19.729Z,31.75
2019-06-27T10:19:19.721Z,31.85
2019-06-27T10:20:19.710Z,31.96
2019-06-27T10:21:19.703Z,31.99
2019-06-27T10:22:19.687Z,31.96
2019-06-27T10:23:19.677Z,32.06
2019-06-27T10:24:19.666Z,32.07
2019-06-27T10:25:19.659Z,32.03
2019-06-27T10:26:19.644Z,32.20
2019-06-27T10:27:19.634Z,32.36
2019-06-27T10:28:19.623Z,32.58
2019-06-27T10:29:19.611Z,32.62
2019-06-27T10:30:19.602Z,32.58
2019-06-27T10:31:19.597Z,32.54
2019-06-27T10:32:19.613Z,32.58
2019-06-27T10:33:19.591Z,32.55
2019-06-27T10:34:19.559Z,32.69
2019-06-27T10:35:19.549Z,32.79
2019-06-27T10:36:21.040Z,32.73
2019-06-27T10:37:19.531Z,32.57
2019-06-27T10:38:19.522Z,32.47
2019-06-27T10:39:19.521Z,32.14
2019-06-27T10:40:19.500Z,32.40
2019-06-27T10:41:19.485Z,32.43
2019-06-27T10:42:20.977Z,32.51
2019-06-27T10:43:19.469Z,32.71
2019-06-27T10:44:19.455Z,32.81
2019-06-27T10:45:19.457Z,32.96
2019-06-27T10:46:19.441Z,32.81
2019-06-27T10:47:19.429Z,32.74
2019-06-27T10:48:19.418Z,32.51
2019-06-27T10:49:19.403Z,32.51
2019-06-27T10:50:19.393Z,32.73
2019-06-27T10:51:19.383Z,32.76
2019-06-27T10:52:19.375Z,32.79
2019-06-27T10:53:19.417Z,32.84
2019-06-27T10:54:19.351Z,32.99
2019-06-27T10:55:19.342Z,32.92
2019-06-27T10:56:19.338Z,33.06
2019-06-27T10:57:19.321Z,33.04
2019-06-27T10:58:19.310Z,33.10
2019-06-27T10:59:19.301Z,33.22
2019-06-27T11:00:19.333Z,33.30
2019-06-27T11:01:19.281Z,33.34
2019-06-27T11:02:19.272Z,33.53
2019-06-27T11:03:19.267Z,33.57
2019-06-27T11:04:19.259Z,33.53
2019-06-27T11:05:19.240Z,33.67
2019-06-27T11:06:19.234Z,33.83
2019-06-27T11:07:19.222Z,33.86
2019-06-27T11:08:19.210Z,33.68
2019-06-27T11:09:19.206Z,33.82
2019-06-27T11:10:19.191Z,33.92
2019-06-27T11:11:19.188Z,34.13
2019-06-27T11:12:19.171Z,34.23
2019-06-27T11:13:19.166Z,34.38
2019-06-27T11:14:19.395Z,34.50
2019-06-27T11:15:19.147Z,34.46
2019-06-27T11:16:19.136Z,34.35
2019-06-27T11:17:19.125Z,34.26
2019-06-27T11:18:21.367Z,34.36
2019-06-27T11:19:19.121Z,34.41
2019-06-27T11:20:19.096Z,34.45
2019-06-27T11:21:19.087Z,34.39
2019-06-27T11:22:19.094Z,34.14
2019-06-27T11:23:19.183Z,33.98
2019-06-27T11:24:19.072Z,33.80
2019-06-27T11:25:19.045Z,33.73
2019-06-27T11:26:19.040Z,33.78
2019-06-27T11:27:19.034Z,33.64
2019-06-27T11:28:19.030Z,33.65
2019-06-27T11:29:19.007Z,33.82
2019-06-27T11:30:19.021Z,33.92
2019-06-27T11:31:18.991Z,33.73
2019-06-27T11:32:18.980Z,33.68
2019-06-27T11:33:31.908Z,33.78
2019-06-27T11:34:19.415Z,33.78
2019-06-27T11:35:18.954Z,34.05
2019-06-27T11:36:18.942Z,34.20
2019-06-27T11:37:18.930Z,34.36
2019-06-27T11:38:18.925Z,34.24
2019-06-27T11:39:18.917Z,34.27
2019-06-27T11:40:18.904Z,34.56
2019-06-27T11:41:18.937Z,34.56
2019-06-27T11:42:18.887Z,34.64
2019-06-27T11:43:18.890Z,34.41
2019-06-27T11:44:18.865Z,34.29
2019-06-27T11:45:18.858Z,34.24
2019-06-27T11:46:18.858Z,34.00
2019-06-27T11:47:18.842Z,33.89
2019-06-27T11:48:18.829Z,34.05
2019-06-27T11:49:18.820Z,34.09
2019-06-27T11:50:18.815Z,34.26
2019-06-27T11:51:18.801Z,34.19
2019-06-27T11:52:18.800Z,34.09
2019-06-27T11:53:18.782Z,34.11
2019-06-27T11:54:18.773Z,34.17
2019-06-27T11:55:18.763Z,34.29
2019-06-27T11:56:18.764Z,34.22
2019-06-27T11:57:18.748Z,34.17
2019-06-27T11:58:18.736Z,34.17
2019-06-27T11:59:18.726Z,34.29
2019-06-27T12:00:18.720Z,34.34
2019-06-27T12:01:18.716Z,34.29
2019-06-27T12:02:18.698Z,34.22
2019-06-27T12:03:18.690Z,34.23
2019-06-27T12:04:18.681Z,34.38
2019-06-27T12:05:18.670Z,34.54
2019-06-27T12:06:18.663Z,34.63
2019-06-27T12:07:18.695Z,34.80
2019-06-27T12:08:18.652Z,34.63
2019-06-27T12:09:18.634Z,34.84
2019-06-27T12:10:18.625Z,34.98
2019-06-27T12:11:18.618Z,35.01
2019-06-27T12:12:18.611Z,34.96
2019-06-27T12:13:18.612Z,34.96
2019-06-27T12:14:18.587Z,34.73
2019-06-27T12:15:18.586Z,34.81
2019-06-27T12:16:18.573Z,34.61
2019-06-27T12:17:18.587Z,34.74
2019-06-27T12:18:18.553Z,34.53
2019-06-27T12:19:18.544Z,34.60
2019-06-27T12:20:18.535Z,34.69
2019-06-27T12:21:18.526Z,34.80
2019-06-27T12:22:18.517Z,34.76
2019-06-27T12:23:18.508Z,34.61
2019-06-27T12:24:18.498Z,34.66
2019-06-27T12:25:18.490Z,34.61
2019-06-27T12:26:18.481Z,34.88
2019-06-27T12:27:18.547Z,35.02
2019-06-27T12:28:18.464Z,35.17
2019-06-27T12:29:18.454Z,35.20
2019-06-27T12:30:18.445Z,35.08
2019-06-27T12:31:20.988Z,35.29
2019-06-27T12:32:23.692Z,35.50
2019-06-27T12:33:18.418Z,35.44
2019-06-27T12:34:18.409Z,35.42
2019-06-27T12:35:18.402Z,35.57
2019-06-27T12:36:18.416Z,35.32
2019-06-27T12:37:18.383Z,35.26
2019-06-27T12:38:19.877Z,34.96
2019-06-27T12:39:18.451Z,35.06
2019-06-27T12:40:18.383Z,35.10
2019-06-27T12:41:18.349Z,34.79
2019-06-27T12:42:31.989Z,34.99
2019-06-27T12:43:18.332Z,35.17
2019-06-27T12:44:18.325Z,35.52
2019-06-27T12:45:18.316Z,35.69
2019-06-27T12:46:18.350Z,35.89
2019-06-27T12:47:18.366Z,35.95
2019-06-27T12:48:18.289Z,35.97
2019-06-27T12:49:18.283Z,36.07
2019-06-27T12:50:18.363Z,36.17
2019-06-27T12:51:18.263Z,36.29
2019-06-27T12:52:18.290Z,36.48